Time;durP1;ratioP1;P1;durP2;ratioP2;P2;SDS_P1;SDS_P2;PMS_P1;PMS_P2;Temp;Humidity;BMP_temperature;BMP_pressure;BME280_temperature;BME280_humidity;BME280_pressure;Samples;Min_cycle;Max_cycle;Signal;HPM_P1;HPM_P2
2021/10/26 00:01:39;;;;;;;4.38;1.95;;;;;;;;;;4793220;29;32210;-66
2021/10/26 00:04:07;;;;;;;2.70;1.73;;;;;;;;;;4799398;29;32479;-65
2021/10/26 00:06:35;;;;;;;3.13;1.83;;;;;;;;;;4805682;29;32558;-66
2021/10/26 00:09:02;;;;;;;3.08;1.38;;;;;;;;;;4812173;29;34068;-68
2021/10/26 00:11:29;;;;;;;3.72;1.67;;;;;;;;;;4798719;29;32614;-66
2021/10/26 00:13:56;;;;;;;2.83;1.60;;;;;;;;;;4797850;29;32286;-66
2021/10/26 00:16:23;;;;;;;2.42;1.45;;;;;;;;;;4812339;29;32134;-67
2021/10/26 00:18:51;;;;;;;2.42;1.27;;;;;;;;;;4812063;29;34504;-65
2021/10/26 00:21:17;;;;;;;2.80;1.60;;;;;;;;;;4812395;29;32457;-66
2021/10/26 00:23:44;;;;;;;3.30;1.48;;;;;;;;;;4811671;29;32460;-66
2021/10/26 00:26:11;;;;;;;3.42;1.35;;;;;;;;;;4810880;29;32413;-64
2021/10/26 00:28:38;;;;;;;2.20;1.35;;;;;;;;;;4809551;29;32462;-65
2021/10/26 00:31:04;;;;;;;3.22;1.67;;;;;;;;;;4797118;29;34030;-66
2021/10/26 00:33:31;;;;;;;2.42;1.20;;;;;;;;;;4793838;29;32328;-66
2021/10/26 00:35:59;;;;;;;2.58;1.30;;;;;;;;;;4809776;29;32551;-65
2021/10/26 00:38:26;;;;;;;2.60;1.58;;;;;;;;;;4811910;29;32417;-65
2021/10/26 00:40:53;;;;;;;4.35;1.27;;;;;;;;;;4809072;29;34547;-67
2021/10/26 00:43:20;;;;;;;3.55;1.88;;;;;;;;;;4809614;29;32648;-65
2021/10/26 00:45:48;;;;;;;3.40;1.60;;;;;;;;;;4808381;29;32921;-66
2021/10/26 00:48:14;;;;;;;3.88;1.40;;;;;;;;;;4807493;29;32542;-65
2021/10/26 00:50:41;;;;;;;2.42;1.17;;;;;;;;;;4809043;29;32353;-65
2021/10/26 00:53:10;;;;;;;2.08;1.25;;;;;;;;;;4808478;29;35547;-66
2021/10/26 00:55:37;;;;;;;3.55;1.05;;;;;;;;;;4808369;29;32296;-65
2021/10/26 00:58:03;;;;;;;3.47;1.25;;;;;;;;;;4809253;29;32294;-66
2021/10/26 01:00:30;;;;;;;2.63;1.05;;;;;;;;;;4811747;29;32486;-65
2021/10/26 01:02:56;;;;;;;2.97;1.15;;;;;;;;;;4811480;29;35367;-66
2021/10/26 01:05:23;;;;;;;2.03;1.00;;;;;;;;;;4811049;29;32500;-65
2021/10/26 01:07:50;;;;;;;1.70;0.98;;;;;;;;;;4811184;29;32439;-66
2021/10/26 01:10:19;;;;;;;2.50;1.10;;;;;;;;;;4811620;29;32347;-66
2021/10/26 01:12:46;;;;;;;1.73;1.02;;;;;;;;;;4793477;29;32541;-66
2021/10/26 01:15:13;;;;;;;1.35;0.80;;;;;;;;;;4811180;29;35226;-66
2021/10/26 01:17:39;;;;;;;3.92;1.45;;;;;;;;;;4811576;29;32523;-66
2021/10/26 01:20:09;;;;;;;2.88;1.20;;;;;;;;;;4794859;29;32439;-67
2021/10/26 01:22:41;;;;;;;2.55;1.17;;;;;;;;;;4804685;29;32409;-65
2021/10/26 01:25:09;;;;;;;4.18;1.23;;;;;;;;;;4793780;29;34172;-65
2021/10/26 01:27:41;;;;;;;1.77;1.13;;;;;;;;;;4793245;29;32685;-66
2021/10/26 01:30:10;;;;;;;1.90;1.15;;;;;;;;;;4793387;29;32479;-67
2021/10/26 01:32:37;;;;;;;2.25;1.15;;;;;;;;;;4805453;29;32480;-64
2021/10/26 01:35:05;;;;;;;1.67;1.27;;;;;;;;;;4805442;29;32165;-66
2021/10/26 01:37:34;;;;;;;4.25;1.35;;;;;;;;;;4792836;29;35311;-65
2021/10/26 01:40:01;;;;;;;4.13;1.10;;;;;;;;;;4801196;29;32566;-65
2021/10/26 01:42:27;;;;;;;3.58;1.33;;;;;;;;;;4811067;29;32458;-65
2021/10/26 01:44:54;;;;;;;3.63;1.30;;;;;;;;;;4813440;29;32253;-66
2021/10/26 01:47:21;;;;;;;2.45;1.05;;;;;;;;;;4804295;29;34938;-65
2021/10/26 01:49:47;;;;;;;1.85;1.30;;;;;;;;;;4795477;29;32392;-66
2021/10/26 01:52:14;;;;;;;3.45;1.52;;;;;;;;;;4795456;29;32526;-66
2021/10/26 01:54:42;;;;;;;3.33;1.15;;;;;;;;;;4804107;29;32232;-66
2021/10/26 01:57:09;;;;;;;1.40;1.23;;;;;;;;;;4814190;29;32350;-67
2021/10/26 01:59:36;;;;;;;2.72;1.20;;;;;;;;;;4813487;29;34187;-68
2021/10/26 02:02:04;;;;;;;3.60;1.00;;;;;;;;;;4813456;29;32371;-68
2021/10/26 02:04:30;;;;;;;;;;;;;;;;;;4813231;29;32580;-67
2021/10/26 02:06:57;;;;;;;2.35;1.05;;;;;;;;;;4813777;29;32232;-68
2021/10/26 02:09:23;;;;;;;3.08;0.90;;;;;;;;;;4813421;29;34030;-68
2021/10/26 02:11:51;;;;;;;1.55;1.15;;;;;;;;;;4813460;29;32608;-67
2021/10/26 02:14:18;;;;;;;2.25;1.27;;;;;;;;;;4807554;29;32357;-67
2021/10/26 02:16:44;;;;;;;1.50;1.15;;;;;;;;;;4812126;29;32733;-67
2021/10/26 02:19:11;;;;;;;4.43;1.70;;;;;;;;;;4805666;29;32418;-67
2021/10/26 02:21:38;;;;;;;1.77;1.30;;;;;;;;;;4812956;29;36314;-66
2021/10/26 02:24:04;;;;;;;1.50;1.20;;;;;;;;;;4812712;29;32300;-66
2021/10/26 02:26:31;;;;;;;3.03;1.48;;;;;;;;;;4813028;29;32441;-66
2021/10/26 02:28:59;;;;;;;2.38;1.40;;;;;;;;;;4812481;29;32351;-65
2021/10/26 02:31:26;;;;;;;2.47;1.45;;;;;;;;;;4812645;29;35105;-66
2021/10/26 02:33:52;;;;;;;1.88;1.13;;;;;;;;;;4808147;29;32594;-66
2021/10/26 02:36:19;;;;;;;2.58;1.15;;;;;;;;;;4813321;29;32241;-67
2021/10/26 02:38:46;;;;;;;1.77;1.13;;;;;;;;;;4811775;29;32379;-66
2021/10/26 02:41:13;;;;;;;4.03;1.40;;;;;;;;;;4808233;29;32389;-68
2021/10/26 02:43:39;;;;;;;2.03;1.13;;;;;;;;;;4812477;29;34881;-66
2021/10/26 02:46:08;;;;;;;3.35;1.33;;;;;;;;;;4813120;29;32441;-65
2021/10/26 02:48:35;;;;;;;3.33;1.15;;;;;;;;;;4811463;29;32421;-65
2021/10/26 02:51:02;;;;;;;1.48;0.98;;;;;;;;;;4806869;29;32594;-66
2021/10/26 02:53:28;;;;;;;1.67;1.10;;;;;;;;;;4804272;29;34910;-67
2021/10/26 02:55:55;;;;;;;1.90;1.50;;;;;;;;;;4805016;29;32144;-66
2021/10/26 02:58:22;;;;;;;4.05;1.42;;;;;;;;;;4803787;29;32534;-69
2021/10/26 03:00:49;;;;;;;2.53;1.23;;;;;;;;;;4803824;29;32414;-67
2021/10/26 03:03:17;;;;;;;2.38;1.35;;;;;;;;;;4804118;29;32530;-67
2021/10/26 03:05:44;;;;;;;1.38;1.20;;;;;;;;;;4805994;29;34365;-67
2021/10/26 03:08:11;;;;;;;5.40;1.20;;;;;;;;;;4792576;29;32708;-67
2021/10/26 03:10:37;;;;;;;1.50;1.25;;;;;;;;;;4801719;29;32390;-68
2021/10/26 03:13:05;;;;;;;1.85;1.17;;;;;;;;;;4811059;29;32264;-66
2021/10/26 03:15:31;;;;;;;;;;;;;;;;;;4811033;29;35588;-67
2021/10/26 03:17:58;;;;;;;3.97;1.15;;;;;;;;;;4811294;29;32338;-68
2021/10/26 03:20:26;;;;;;;2.20;1.27;;;;;;;;;;4807125;29;32386;-66
2021/10/26 03:22:53;;;;;;;4.57;1.90;;;;;;;;;;4789330;29;32545;-68
2021/10/26 03:25:20;;;;;;;6.07;1.50;;;;;;;;;;4806845;29;32344;-67
2021/10/26 03:27:47;;;;;;;4.85;1.95;;;;;;;;;;4811892;29;33953;-68
2021/10/26 03:30:14;;;;;;;3.80;1.73;;;;;;;;;;4811777;29;32200;-67
2021/10/26 03:32:40;;;;;;;5.30;1.50;;;;;;;;;;4811525;29;32431;-69
2021/10/26 03:35:08;;;;;;;3.33;1.63;;;;;;;;;;4810251;29;32492;-68
2021/10/26 03:37:37;;;;;;;4.22;1.55;;;;;;;;;;4811214;29;35786;-68
2021/10/26 03:40:05;;;;;;;3.03;1.30;;;;;;;;;;4811171;29;32348;-69
2021/10/26 03:42:32;;;;;;;2.85;1.88;;;;;;;;;;4810784;29;32354;-69
2021/10/26 03:44:59;;;;;;;3.47;2.33;;;;;;;;;;4810978;29;32419;-70
2021/10/26 03:47:25;;;;;;;2.90;1.58;;;;;;;;;;4811136;29;32442;-69
2021/10/26 03:49:52;;;;;;;2.97;1.45;;;;;;;;;;4811370;29;35227;-71
2021/10/26 03:52:19;;;;;;;3.30;1.70;;;;;;;;;;4811510;29;32261;-68
2021/10/26 03:54:47;;;;;;;4.28;1.73;;;;;;;;;;4810537;29;32749;-68
2021/10/26 03:57:14;;;;;;;4.35;1.65;;;;;;;;;;4811660;29;32462;-68
2021/10/26 03:59:41;;;;;;;3.85;1.73;;;;;;;;;;4811176;29;34368;-67
2021/10/26 04:02:17;;;;;;;4.20;1.73;;;;;;;;;;4798699;29;32473;-67
2021/10/26 04:04:44;;;;;;;3.65;1.58;;;;;;;;;;4800933;29;32554;-67
2021/10/26 04:07:10;;;;;;;2.30;1.33;;;;;;;;;;4811545;29;32593;-69
2021/10/26 04:09:57;;;;;;;4.50;1.90;;;;;;;;;;4811616;29;32544;-67
2021/10/26 04:12:25;;;;;;;3.95;2.13;;;;;;;;;;4804871;29;35710;-68
2021/10/26 04:14:56;;;;;;;6.18;1.92;;;;;;;;;;4801123;29;32524;-69
2021/10/26 04:17:23;;;;;;;2.00;1.48;;;;;;;;;;4798073;29;33790;-70
2021/10/26 04:19:53;;;;;;;4.43;1.60;;;;;;;;;;4802159;29;32360;-68
2021/10/26 04:22:21;;;;;;;3.92;1.63;;;;;;;;;;4802331;29;34171;-70
2021/10/26 04:24:49;;;;;;;3.17;1.60;;;;;;;;;;4797245;29;32913;-68
2021/10/26 04:27:16;;;;;;;5.63;1.73;;;;;;;;;;4801523;29;32439;-68
2021/10/26 04:29:45;;;;;;;6.22;1.70;;;;;;;;;;4797510;29;32335;-68
2021/10/26 04:32:14;;;;;;;5.15;1.60;;;;;;;;;;4800257;29;32663;-68
2021/10/26 04:34:41;;;;;;;7.53;1.98;;;;;;;;;;4801587;29;34080;-70
2021/10/26 04:37:11;;;;;;;2.83;1.55;;;;;;;;;;4798229;29;32365;-70
2021/10/26 04:39:39;;;;;;;3.58;1.30;;;;;;;;;;4805133;29;32272;-67
2021/10/26 04:42:08;;;;;;;3.55;1.45;;;;;;;;;;4801978;29;32459;-66
2021/10/26 04:44:35;;;;;;;2.50;1.50;;;;;;;;;;4802719;29;34123;-68
2021/10/26 04:47:04;;;;;;;6.72;1.42;;;;;;;;;;4800274;29;32654;-69
2021/10/26 04:49:31;;;;;;;3.80;1.42;;;;;;;;;;4802156;29;32491;-69
2021/10/26 04:51:59;;;;;;;5.65;1.67;;;;;;;;;;4802309;29;32549;-68
2021/10/26 04:54:26;;;;;;;3.33;1.35;;;;;;;;;;4800905;29;32617;-66
2021/10/26 04:56:52;;;;;;;3.38;1.63;;;;;;;;;;4799652;29;34636;-69
2021/10/26 04:59:20;;;;;;;3.42;1.38;;;;;;;;;;4792436;29;32431;-70
2021/10/26 05:01:46;;;;;;;3.45;1.33;;;;;;;;;;4804731;29;32463;-66
2021/10/26 05:04:14;;;;;;;2.88;1.40;;;;;;;;;;4800464;29;32442;-69
2021/10/26 05:06:41;;;;;;;4.13;1.10;;;;;;;;;;4804439;29;35671;-67
2021/10/26 05:09:08;;;;;;;2.55;1.20;;;;;;;;;;4793399;29;32412;-66
2021/10/26 05:11:34;;;;;;;3.17;1.00;;;;;;;;;;4800612;29;32700;-66
2021/10/26 05:14:01;;;;;;;4.10;1.42;;;;;;;;;;4797235;29;32510;-66
2021/10/26 05:16:28;;;;;;;2.05;1.02;;;;;;;;;;4809945;29;32426;-68
2021/10/26 05:18:58;;;;;;;2.67;0.85;;;;;;;;;;4811175;29;34506;-67
2021/10/26 05:21:26;;;;;;;3.78;0.93;;;;;;;;;;4811318;29;32366;-67
2021/10/26 05:23:53;;;;;;;2.33;1.00;;;;;;;;;;4810772;29;32292;-68
2021/10/26 05:26:20;;;;;;;2.85;1.13;;;;;;;;;;4801526;29;32483;-68
2021/10/26 05:28:47;;;;;;;2.58;0.82;;;;;;;;;;4801228;29;34044;-69
2021/10/26 05:31:14;;;;;;;3.47;1.27;;;;;;;;;;4799012;29;32749;-67
2021/10/26 05:33:42;;;;;;;1.63;0.77;;;;;;;;;;4796547;29;32446;-67
2021/10/26 05:36:09;;;;;;;2.05;0.95;;;;;;;;;;4810744;29;32485;-67
2021/10/26 05:38:37;;;;;;;;;;;;;;;;;;4811602;29;32398;-66
2021/10/26 05:41:04;;;;;;;2.40;0.85;;;;;;;;;;4810602;29;34764;-67
2021/10/26 05:43:31;;;;;;;1.48;0.93;;;;;;;;;;4810872;29;32490;-68
2021/10/26 05:45:58;;;;;;;3.33;0.85;;;;;;;;;;4810989;29;32366;-66
2021/10/26 05:48:25;;;;;;;2.08;0.75;;;;;;;;;;4803643;29;32710;-68
2021/10/26 05:50:51;;;;;;;;;;;;;;;;;;4805070;29;35291;-65
2021/10/26 05:53:18;;;;;;;2.65;0.82;;;;;;;;;;4809686;29;32396;-66
2021/10/26 05:55:45;;;;;;;;;;;;;;;;;;4810517;29;32941;-68
2021/10/26 05:58:13;;;;;;;3.45;1.00;;;;;;;;;;4810280;29;32337;-68
2021/10/26 06:00:40;;;;;;;2.72;0.80;;;;;;;;;;4810316;29;32272;-67
2021/10/26 06:03:07;;;;;;;1.13;1.00;;;;;;;;;;4810673;29;32480;-67
2021/10/26 06:05:33;;;;;;;;;;;;;;;;;;4810739;29;32495;-66
2021/10/26 06:07:59;;;;;;;2.88;0.80;;;;;;;;;;4810793;29;32292;-67
2021/10/26 06:10:27;;;;;;;2.50;1.08;;;;;;;;;;4794017;29;32626;-67
2021/10/26 06:12:59;;;;;;;1.98;1.10;;;;;;;;;;4810636;29;35337;-66
2021/10/26 06:15:26;;;;;;;2.17;1.20;;;;;;;;;;4810370;29;32411;-69
2021/10/26 06:17:53;;;;;;;1.60;0.85;;;;;;;;;;4810836;29;32443;-67
2021/10/26 06:20:20;;;;;;;1.67;1.35;;;;;;;;;;4810241;29;32434;-68
2021/10/26 06:22:46;;;;;;;3.95;1.48;;;;;;;;;;4810191;29;32593;-68
2021/10/26 06:25:13;;;;;;;1.27;0.82;;;;;;;;;;4807693;29;32649;-66
2021/10/26 06:27:40;;;;;;;2.22;0.90;;;;;;;;;;4810042;29;32411;-67
2021/10/26 06:30:09;;;;;;;1.83;1.10;;;;;;;;;;4813358;29;32497;-67
2021/10/26 06:32:39;;;;;;;1.23;0.73;;;;;;;;;;4812960;29;32337;-67
2021/10/26 06:35:07;;;;;;;1.60;1.02;;;;;;;;;;4802307;29;34658;-68
2021/10/26 06:37:35;;;;;;;1.15;1.02;;;;;;;;;;4803342;29;32540;-67
2021/10/26 06:40:03;;;;;;;2.20;0.80;;;;;;;;;;4798463;29;32404;-67
2021/10/26 06:42:32;;;;;;;1.20;0.70;;;;;;;;;;4804321;29;32411;-68
2021/10/26 06:45:04;;;;;;;3.38;1.33;;;;;;;;;;4804843;29;55583;-68
2021/10/26 06:47:32;;;;;;;2.47;1.10;;;;;;;;;;4803173;29;32552;-65
2021/10/26 06:49:58;;;;;;;2.67;0.95;;;;;;;;;;4808870;29;32474;-68
2021/10/26 06:52:25;;;;;;;1.67;1.05;;;;;;;;;;4813084;29;32346;-64
2021/10/26 06:54:52;;;;;;;1.88;0.88;;;;;;;;;;4812130;29;32397;-66
2021/10/26 06:57:21;;;;;;;2.15;1.23;;;;;;;;;;4812875;29;34566;-69
2021/10/26 06:59:47;;;;;;;1.83;0.90;;;;;;;;;;4813081;29;32357;-68
2021/10/26 07:02:14;;;;;;;0.98;0.85;;;;;;;;;;4807317;29;32755;-66
2021/10/26 07:04:42;;;;;;;2.35;1.08;;;;;;;;;;4805676;29;32215;-66
2021/10/26 07:07:09;;;;;;;0.70;0.60;;;;;;;;;;4804052;29;32144;-68
2021/10/26 07:09:35;;;;;;;4.43;0.80;;;;;;;;;;4802394;29;32418;-65
2021/10/26 07:12:02;;;;;;;1.33;0.90;;;;;;;;;;4796050;29;32493;-67
2021/10/26 07:14:29;;;;;;;2.58;0.93;;;;;;;;;;4799529;29;32290;-68
2021/10/26 07:16:55;;;;;;;1.33;1.20;;;;;;;;;;4812795;29;32265;-66
2021/10/26 07:19:22;;;;;;;2.03;1.17;;;;;;;;;;4811970;29;34745;-69
2021/10/26 07:21:51;;;;;;;1.83;0.70;;;;;;;;;;4795385;29;32485;-68
2021/10/26 07:24:18;;;;;;;1.73;1.00;;;;;;;;;;4802976;29;32388;-67
2021/10/26 07:26:45;;;;;;;1.63;0.70;;;;;;;;;;4812094;29;32471;-67
2021/10/26 07:29:11;;;;;;;2.45;1.02;;;;;;;;;;4811156;29;32339;-67
2021/10/26 07:31:38;;;;;;;2.42;0.93;;;;;;;;;;4811422;29;32379;-67
2021/10/26 07:34:05;;;;;;;3.38;1.20;;;;;;;;;;4810180;29;32450;-67
2021/10/26 07:36:53;;;;;;;2.90;1.15;;;;;;;;;;4801678;29;32403;-68
2021/10/26 07:41:53;;;;;;;3.47;1.25;;;;;;;;;;4806234;29;34065;-66
2021/10/26 07:44:20;;;;;;;1.10;0.85;;;;;;;;;;4803589;29;32488;-67
2021/10/26 07:46:46;;;;;;;3.28;0.90;;;;;;;;;;4811320;29;32283;-68
2021/10/26 07:49:13;;;;;;;3.70;1.17;;;;;;;;;;4811223;29;32440;-68
2021/10/26 07:51:40;;;;;;;2.10;0.93;;;;;;;;;;4810062;29;32483;-68
2021/10/26 07:54:06;;;;;;;1.95;1.25;;;;;;;;;;4805581;29;32585;-67
2021/10/26 07:56:35;;;;;;;2.13;0.80;;;;;;;;;;4811547;29;32482;-67
2021/10/26 07:59:02;;;;;;;2.00;1.13;;;;;;;;;;4811912;29;32455;-68
2021/10/26 08:01:29;;;;;;;1.73;0.70;;;;;;;;;;4812232;29;32389;-68
2021/10/26 08:03:57;;;;;;;1.33;1.17;;;;;;;;;;4809947;29;34279;-67
2021/10/26 08:06:24;;;;;;;1.88;1.02;;;;;;;;;;4812070;29;32525;-68
2021/10/26 08:08:50;;;;;;;1.60;1.08;;;;;;;;;;4812200;29;32438;-66
2021/10/26 08:11:18;;;;;;;2.88;0.93;;;;;;;;;;4812190;29;32454;-67
2021/10/26 08:13:46;;;;;;;2.85;1.10;;;;;;;;;;4811181;29;35091;-67
2021/10/26 08:16:14;;;;;;;1.88;1.02;;;;;;;;;;4796313;29;32513;-67
2021/10/26 08:18:42;;;;;;;1.80;1.25;;;;;;;;;;4793862;29;32496;-68
2021/10/26 08:21:08;;;;;;;1.98;1.02;;;;;;;;;;4797009;29;32382;-69
2021/10/26 08:23:35;;;;;;;2.22;1.00;;;;;;;;;;4807144;29;32316;-67
2021/10/26 08:26:02;;;;;;;2.92;1.08;;;;;;;;;;4801342;29;35296;-67
2021/10/26 08:28:30;;;;;;;1.60;1.02;;;;;;;;;;4800929;29;32440;-67
2021/10/26 08:33:38;;;;;;;1.33;0.95;;;;;;;;;;4801327;29;32373;-67
2021/10/26 08:36:05;;;;;;;1.77;1.27;;;;;;;;;;4804964;29;35034;-66
2021/10/26 08:38:32;;;;;;;2.15;0.88;;;;;;;;;;4795586;29;32382;-65
2021/10/26 08:40:59;;;;;;;1.88;1.15;;;;;;;;;;4792901;29;32274;-67
2021/10/26 08:43:27;;;;;;;2.78;1.35;;;;;;;;;;4792660;29;32231;-67
2021/10/26 08:45:54;;;;;;;3.03;1.15;;;;;;;;;;4796201;29;32455;-68
2021/10/26 08:48:23;;;;;;;;;;;;;;;;;;4796672;29;34616;-69
2021/10/26 08:50:55;;;;;;;3.10;1.17;;;;;;;;;;4796183;29;32346;-68
2021/10/26 08:53:22;;;;;;;2.65;1.00;;;;;;;;;;4810466;29;32453;-65
2021/10/26 08:56:00;;;;;;;2.28;0.90;;;;;;;;;;4797940;29;32610;-66
2021/10/26 08:58:27;;;;;;;1.83;0.95;;;;;;;;;;4801510;29;34835;-65
2021/10/26 09:00:55;;;;;;;1.65;0.90;;;;;;;;;;4801043;29;32446;-65
2021/10/26 09:03:25;;;;;;;1.90;1.25;;;;;;;;;;4802676;29;32550;-67
2021/10/26 09:05:53;;;;;;;1.98;1.25;;;;;;;;;;4794730;29;32426;-64
2021/10/26 09:08:21;;;;;;;2.00;1.27;;;;;;;;;;4802895;29;32506;-65
2021/10/26 09:10:50;;;;;;;3.80;1.25;;;;;;;;;;4802668;29;34792;-66
2021/10/26 09:16:42;;;;;;;1.77;1.30;;;;;;;;;;4796742;29;32579;-64
2021/10/26 09:19:12;;;;;;;3.70;1.50;;;;;;;;;;4800433;29;31888;-65
2021/10/26 09:21:40;;;;;;;2.58;1.20;;;;;;;;;;4799389;29;35734;-64
2021/10/26 09:24:09;;;;;;;4.38;1.33;;;;;;;;;;4796442;29;32305;-66
2021/10/26 09:26:53;;;;;;;2.63;1.33;;;;;;;;;;4796453;29;32335;-65
2021/10/26 09:29:40;;;;;;;4.20;1.23;;;;;;;;;;4802835;29;32279;-65
2021/10/26 09:32:10;;;;;;;2.47;1.23;;;;;;;;;;4802568;29;32479;-66
2021/10/26 09:34:41;;;;;;;2.22;1.27;;;;;;;;;;4799132;29;34463;-65
2021/10/26 09:37:09;;;;;;;2.45;1.13;;;;;;;;;;4804164;29;32435;-66
2021/10/26 09:39:35;;;;;;;3.13;1.23;;;;;;;;;;4800165;29;32773;-66
2021/10/26 09:42:11;;;;;;;1.58;1.40;;;;;;;;;;4800969;29;32380;-66
2021/10/26 09:44:42;;;;;;;1.65;1.27;;;;;;;;;;4805213;29;34455;-65
2021/10/26 09:47:13;;;;;;;3.00;0.80;;;;;;;;;;4798379;29;32531;-65
2021/10/26 09:49:45;;;;;;;2.25;1.13;;;;;;;;;;4803458;29;32527;-65
2021/10/26 09:52:15;;;;;;;2.65;1.23;;;;;;;;;;4809203;29;32440;-66
2021/10/26 09:54:43;;;;;;;2.42;1.38;;;;;;;;;;4804675;29;32281;-67
2021/10/26 09:57:13;;;;;;;1.45;1.13;;;;;;;;;;4809713;29;34143;-66
2021/10/26 09:59:48;;;;;;;1.58;0.90;;;;;;;;;;4801606;29;32429;-65
2021/10/26 10:02:22;;;;;;;3.08;0.98;;;;;;;;;;4807636;29;32423;-66
2021/10/26 10:04:52;;;;;;;1.85;1.33;;;;;;;;;;4798227;29;32523;-67
2021/10/26 10:07:32;;;;;;;2.50;1.33;;;;;;;;;;4802571;29;34199;-68
2021/10/26 10:10:04;;;;;;;1.77;0.88;;;;;;;;;;4796035;29;32546;-67
2021/10/26 10:12:30;;;;;;;1.42;1.05;;;;;;;;;;4800117;29;32350;-67
2021/10/26 10:14:57;;;;;;;2.47;1.30;;;;;;;;;;4802492;29;32468;-66
2021/10/26 10:17:26;;;;;;;1.75;1.23;;;;;;;;;;4794608;29;32334;-66
2021/10/26 10:19:55;;;;;;;2.22;1.25;;;;;;;;;;4800614;29;34768;-65
2021/10/26 10:22:27;;;;;;;1.65;1.25;;;;;;;;;;4797069;29;32363;-65
2021/10/26 10:24:57;;;;;;;2.05;1.13;;;;;;;;;;4800226;29;32230;-66
2021/10/26 10:27:27;;;;;;;2.15;1.20;;;;;;;;;;4800545;29;32532;-65
2021/10/26 10:29:55;;;;;;;2.83;1.15;;;;;;;;;;4808582;29;34122;-67
2021/10/26 10:32:23;;;;;;;2.72;1.25;;;;;;;;;;4812560;29;32246;-67
2021/10/26 10:34:51;;;;;;;1.52;1.10;;;;;;;;;;4804847;29;32351;-66
2021/10/26 10:37:22;;;;;;;1.80;1.00;;;;;;;;;;4805395;29;32632;-66
2021/10/26 10:39:50;;;;;;;1.83;1.25;;;;;;;;;;4802234;29;32458;-67
2021/10/26 10:42:22;;;;;;;2.08;1.20;;;;;;;;;;4799184;29;34300;-66
2021/10/26 10:44:50;;;;;;;1.48;0.85;;;;;;;;;;4803211;29;32351;-66
2021/10/26 10:47:40;;;;;;;2.90;1.23;;;;;;;;;;4803125;29;32502;-67
2021/10/26 10:50:29;;;;;;;1.52;0.95;;;;;;;;;;4794739;29;32423;-66
2021/10/26 10:53:19;;;;;;;2.30;1.13;;;;;;;;;;4799435;29;35334;-68
2021/10/26 10:55:50;;;;;;;1.83;1.05;;;;;;;;;;4803253;29;32515;-66
2021/10/26 10:58:39;;;;;;;1.75;1.05;;;;;;;;;;4793652;29;32499;-66
2021/10/26 11:01:35;;;;;;;2.08;1.17;;;;;;;;;;4794608;29;32566;-69
2021/10/26 11:04:37;;;;;;;2.17;1.10;;;;;;;;;;4800585;29;32382;-65
2021/10/26 11:07:04;;;;;;;2.92;1.30;;;;;;;;;;4806435;29;33929;-69
2021/10/26 11:09:51;;;;;;;2.20;1.02;;;;;;;;;;4805562;29;32382;-66
2021/10/26 11:12:29;;;;;;;2.28;1.13;;;;;;;;;;4801681;29;32351;-66
2021/10/26 11:14:58;;;;;;;1.55;1.20;;;;;;;;;;4807224;29;32985;-69
2021/10/26 11:17:59;;;;;;;3.63;1.25;;;;;;;;;;4804536;29;35542;-70
2021/10/26 11:20:43;;;;;;;2.28;0.93;;;;;;;;;;4802832;29;32363;-69
2021/10/26 11:23:14;;;;;;;2.28;1.00;;;;;;;;;;4789078;29;32445;-67
2021/10/26 11:25:45;;;;;;;3.50;1.00;;;;;;;;;;4799525;29;32427;-67
2021/10/26 11:28:39;;;;;;;2.92;1.23;;;;;;;;;;4796257;29;32297;-69
2021/10/26 11:31:11;;;;;;;1.75;1.02;;;;;;;;;;4803197;29;34322;-67
2021/10/26 11:33:40;;;;;;;1.95;0.93;;;;;;;;;;4799110;29;32423;-70
2021/10/26 11:36:08;;;;;;;3.30;1.67;;;;;;;;;;4802045;29;32550;-67
2021/10/26 11:38:42;;;;;;;1.77;1.10;;;;;;;;;;4799191;29;32362;-68
2021/10/26 11:41:12;;;;;;;2.33;0.82;;;;;;;;;;4793892;29;35455;-68
2021/10/26 11:43:41;;;;;;;3.10;1.58;;;;;;;;;;4794511;29;32313;-69
2021/10/26 11:46:12;;;;;;;3.30;1.33;;;;;;;;;;4797481;29;32687;-68
2021/10/26 11:48:47;;;;;;;4.55;1.17;;;;;;;;;;4801883;29;32452;-68
2021/10/26 11:51:22;;;;;;;2.13;1.23;;;;;;;;;;4812547;29;32531;-67
2021/10/26 11:53:51;;;;;;;2.05;1.10;;;;;;;;;;4807054;29;35520;-68
2021/10/26 11:56:26;;;;;;;2.13;1.15;;;;;;;;;;4801033;29;33621;-69
2021/10/26 11:59:01;;;;;;;1.67;0.93;;;;;;;;;;4804373;29;32473;-68
2021/10/26 12:01:50;;;;;;;2.13;1.10;;;;;;;;;;4798538;29;35481;-68
2021/10/26 12:04:24;;;;;;;2.35;1.35;;;;;;;;;;4802462;29;34016;-69
2021/10/26 12:06:55;;;;;;;3.58;1.00;;;;;;;;;;4803439;29;32579;-67
2021/10/26 12:09:22;;;;;;;2.22;1.08;;;;;;;;;;4801763;29;32270;-66
2021/10/26 12:11:53;;;;;;;2.17;1.13;;;;;;;;;;4802011;29;32435;-68
2021/10/26 12:14:31;;;;;;;2.85;1.15;;;;;;;;;;4802325;29;32472;-69
2021/10/26 12:17:24;;;;;;;3.85;1.30;;;;;;;;;;4803117;29;35316;-67
2021/10/26 12:20:03;;;;;;;2.78;1.23;;;;;;;;;;4793292;29;32247;-70
2021/10/26 12:22:33;;;;;;;1.95;1.08;;;;;;;;;;4800495;29;32434;-69
2021/10/26 12:25:11;;;;;;;3.88;1.35;;;;;;;;;;4801432;29;32382;-68
2021/10/26 12:27:42;;;;;;;3.28;1.35;;;;;;;;;;4802211;29;34316;-67
2021/10/26 12:30:24;;;;;;;3.42;1.05;;;;;;;;;;4800216;29;32463;-67
2021/10/26 12:32:58;;;;;;;1.48;1.33;;;;;;;;;;4793653;29;32637;-67
2021/10/26 12:35:28;;;;;;;3.65;1.23;;;;;;;;;;4795940;29;32388;-68
2021/10/26 12:38:21;;;;;;;2.88;1.05;;;;;;;;;;4792050;29;32441;-69
2021/10/26 12:40:50;;;;;;;2.45;1.42;;;;;;;;;;4790311;29;34603;-68
2021/10/26 12:43:23;;;;;;;1.70;1.10;;;;;;;;;;4792580;29;32564;-67
2021/10/26 12:45:50;;;;;;;2.78;1.30;;;;;;;;;;4799801;29;32526;-68
2021/10/26 12:48:17;;;;;;;1.90;1.15;;;;;;;;;;4793198;29;32388;-67
2021/10/26 12:51:00;;;;;;;1.85;1.42;;;;;;;;;;4793677;29;34076;-68
2021/10/26 12:53:34;;;;;;;2.28;1.45;;;;;;;;;;4793304;29;32365;-68
2021/10/26 12:56:04;;;;;;;2.92;1.15;;;;;;;;;;4794039;29;32385;-67
2021/10/26 12:58:43;;;;;;;1.95;1.17;;;;;;;;;;4802727;29;32331;-67
2021/10/26 13:01:24;;;;;;;4.70;1.58;;;;;;;;;;4810813;29;32314;-67
2021/10/26 13:04:15;;;;;;;4.10;1.33;;;;;;;;;;4795645;29;34065;-67
2021/10/26 13:06:54;;;;;;;2.72;1.48;;;;;;;;;;4804927;29;32469;-66
2021/10/26 13:09:48;;;;;;;2.05;1.35;;;;;;;;;;4811250;29;32346;-66
2021/10/26 13:12:21;;;;;;;3.10;1.48;;;;;;;;;;4811727;29;32221;-69
2021/10/26 13:14:51;;;;;;;1.55;0.80;;;;;;;;;;4810428;29;36081;-68
2021/10/26 13:17:27;;;;;;;1.63;1.10;;;;;;;;;;4796666;29;32353;-66
2021/10/26 13:20:19;;;;;;;2.05;1.52;;;;;;;;;;4803017;29;32380;-67
2021/10/26 13:23:02;;;;;;;1.65;1.13;;;;;;;;;;4808959;29;32371;-67
2021/10/26 13:25:34;;;;;;;4.20;1.50;;;;;;;;;;4809356;29;32445;-68
2021/10/26 13:28:03;;;;;;;3.83;1.45;;;;;;;;;;4805415;29;34706;-68
2021/10/26 13:30:33;;;;;;;2.83;1.42;;;;;;;;;;4790800;29;32461;-68
2021/10/26 13:33:00;;;;;;;1.73;1.13;;;;;;;;;;4797409;29;32394;-68
2021/10/26 13:35:26;;;;;;;4.25;1.05;;;;;;;;;;4792064;29;32331;-67
2021/10/26 13:37:53;;;;;;;1.95;1.23;;;;;;;;;;4791131;29;34053;-67
2021/10/26 14:03:23;;;;;;;2.05;1.50;;;;;;;;;;4795912;29;32373;-70
2021/10/26 14:05:53;;;;;;;3.55;1.33;;;;;;;;;;5847236;24;31700;-68
2021/10/26 14:08:20;;;;;;;2.42;1.20;;;;;;;;;;5834445;24;35753;-69
2021/10/26 14:10:48;;;;;;;3.55;1.33;;;;;;;;;;5825896;24;32494;-69
2021/10/26 14:13:15;;;;;;;3.05;1.55;;;;;;;;;;5826011;24;32390;-69
2021/10/26 14:15:44;;;;;;;4.97;1.75;;;;;;;;;;5826151;24;32476;-69
2021/10/26 14:18:10;;;;;;;3.95;1.55;;;;;;;;;;5824960;24;32268;-71
2021/10/26 14:20:44;;;;;;;2.55;1.23;;;;;;;;;;5825118;24;34425;-67
2021/10/26 14:23:14;;;;;;;1.45;1.20;;;;;;;;;;5800345;24;32670;-69
2021/10/26 14:25:42;;;;;;;3.38;2.45;;;;;;;;;;5826859;24;32481;-68
2021/10/26 14:28:09;;;;;;;3.65;0.90;;;;;;;;;;5825384;24;32689;-71
2021/10/26 14:30:36;;;;;;;2.45;2.20;;;;;;;;;;5828287;24;34289;-70
2021/10/26 14:33:04;;;;;;;2.50;2.10;;;;;;;;;;5829467;24;32329;-68
2021/10/26 14:35:36;;;;;;;2.97;1.95;;;;;;;;;;5829986;24;32407;-69
2021/10/26 14:54:03;;;;;;;3.03;1.20;;;;;;;;;;5826277;24;35202;-69
2021/10/26 14:56:29;;;;;;;7.10;2.75;;;;;;;;;;5821458;24;32783;-70
2021/10/26 14:58:56;;;;;;;3.05;1.52;;;;;;;;;;5821796;24;32874;-70
2021/10/26 15:01:23;;;;;;;4.00;2.13;;;;;;;;;;5822356;24;32178;-68
2021/10/26 15:03:49;;;;;;;4.55;1.52;;;;;;;;;;5821852;24;32309;-70
2021/10/26 15:06:18;;;;;;;2.28;1.60;;;;;;;;;;5822622;24;34286;-69
2021/10/26 15:08:52;;;;;;;3.00;2.42;;;;;;;;;;5822832;24;32473;-71
2021/10/26 15:11:20;;;;;;;3.08;1.65;;;;;;;;;;5823939;24;32239;-74
2021/10/26 15:13:52;;;;;;;5.18;1.90;;;;;;;;;;5823972;24;32323;-70
2021/10/26 15:16:19;;;;;;;3.80;1.55;;;;;;;;;;5823733;24;33864;-69
2021/10/26 15:18:48;;;;;;;3.22;1.30;;;;;;;;;;5799999;24;32383;-70
2021/10/26 15:21:20;;;;;;;3.13;1.83;;;;;;;;;;5824009;24;32226;-69
2021/10/26 15:24:18;;;;;;;3.72;1.42;;;;;;;;;;5823497;24;32358;-70
2021/10/26 15:34:55;;;;;;;2.63;1.58;;;;;;;;;;5822367;24;32445;-70
2021/10/26 15:37:22;;;;;;;95.13;11.55;;;;;;;;;;5799977;24;32528;-68
2021/10/26 15:39:50;;;;;;;63.47;10.40;;;;;;;;;;5822637;24;35760;-72
2021/10/26 15:42:17;;;;;;;43.42;6.47;;;;;;;;;;5822616;24;32337;-70
2021/10/26 15:44:43;;;;;;;31.13;4.97;;;;;;;;;;5821810;24;32385;-68
2021/10/26 15:47:11;;;;;;;23.65;3.83;;;;;;;;;;5822017;24;32449;-71
2021/10/26 15:49:38;;;;;;;20.02;3.95;;;;;;;;;;5822896;24;32449;-70
2021/10/26 15:52:06;;;;;;;14.70;4.55;;;;;;;;;;5822245;24;34491;-69
2021/10/26 15:54:33;;;;;;;10.95;3.85;;;;;;;;;;5821852;24;32719;-71
2021/10/26 15:57:02;;;;;;;12.07;3.17;;;;;;;;;;5821973;24;32464;-68